sensor_id;sensor_type;location;lat;lon;timestamp;P1;durP1;ratioP1;P2;durP2;ratioP2
4794;SDS011;2411;47.060;15.064;2022-12-18T00:03:48;3.27;;;2.30;;
4794;SDS011;2411;47.060;15.064;2022-12-18T00:06:16;3.50;;;3.20;;
4794;SDS011;2411;47.060;15.064;2022-12-18T00:08:44;6.10;;;3.87;;
4794;SDS011;2411;47.060;15.064;2022-12-18T00:11:13;5.60;;;4.40;;
4794;SDS011;2411;47.060;15.064;2022-12-18T00:13:42;3.73;;;3.37;;
4794;SDS011;2411;47.060;15.064;2022-12-18T00:16:10;3.07;;;2.63;;
4794;SDS011;2411;47.060;15.064;2022-12-18T00:18:40;3.83;;;2.90;;
4794;SDS011;2411;47.060;15.064;2022-12-18T00:21:09;5.20;;;2.50;;
4794;SDS011;2411;47.060;15.064;2022-12-18T00:23:37;2.80;;;2.60;;
4794;SDS011;2411;47.060;15.064;2022-12-18T00:26:09;2.87;;;2.57;;
4794;SDS011;2411;47.060;15.064;2022-12-18T00:28:42;3.13;;;2.80;;
4794;SDS011;2411;47.060;15.064;2022-12-18T00:31:12;2.70;;;2.50;;
4794;SDS011;2411;47.060;15.064;2022-12-18T00:33:42;2.70;;;2.50;;
4794;SDS011;2411;47.060;15.064;2022-12-18T00:36:13;3.23;;;2.40;;
4794;SDS011;2411;47.060;15.064;2022-12-18T00:38:43;2.53;;;2.10;;
4794;SDS011;2411;47.060;15.064;2022-12-18T00:41:11;2.17;;;1.97;;
4794;SDS011;2411;47.060;15.064;2022-12-18T00:43:39;1.67;;;1.60;;
4794;SDS011;2411;47.060;15.064;2022-12-18T00:46:07;2.30;;;2.10;;
4794;SDS011;2411;47.060;15.064;2022-12-18T00:48:35;2.10;;;2.00;;
4794;SDS011;2411;47.060;15.064;2022-12-18T00:51:02;1.87;;;1.67;;
4794;SDS011;2411;47.060;15.064;2022-12-18T00:53:29;1.70;;;1.70;;
4794;SDS011;2411;47.060;15.064;2022-12-18T00:55:56;1.93;;;1.83;;
4794;SDS011;2411;47.060;15.064;2022-12-18T00:58:23;2.83;;;2.53;;
4794;SDS011;2411;47.060;15.064;2022-12-18T01:00:50;2.83;;;2.63;;
4794;SDS011;2411;47.060;15.064;2022-12-18T01:03:18;3.37;;;2.40;;
4794;SDS011;2411;47.060;15.064;2022-12-18T01:05:45;2.47;;;2.27;;
4794;SDS011;2411;47.060;15.064;2022-12-18T01:08:12;3.17;;;2.67;;
4794;SDS011;2411;47.060;15.064;2022-12-18T01:10:40;2.20;;;2.10;;
4794;SDS011;2411;47.060;15.064;2022-12-18T01:13:08;2.43;;;2.23;;
4794;SDS011;2411;47.060;15.064;2022-12-18T01:15:35;2.30;;;2.10;;
4794;SDS011;2411;47.060;15.064;2022-12-18T01:18:06;2.60;;;2.40;;
4794;SDS011;2411;47.060;15.064;2022-12-18T01:20:33;2.10;;;1.97;;
4794;SDS011;2411;47.060;15.064;2022-12-18T01:23:00;1.73;;;1.63;;
4794;SDS011;2411;47.060;15.064;2022-12-18T01:25:27;1.97;;;1.87;;
4794;SDS011;2411;47.060;15.064;2022-12-18T01:27:55;1.83;;;1.73;;
4794;SDS011;2411;47.060;15.064;2022-12-18T01:30:22;2.47;;;2.30;;
4794;SDS011;2411;47.060;15.064;2022-12-18T01:32:49;1.60;;;1.50;;
4794;SDS011;2411;47.060;15.064;2022-12-18T01:35:16;1.60;;;1.50;;
4794;SDS011;2411;47.060;15.064;2022-12-18T01:37:44;2.37;;;2.10;;
4794;SDS011;2411;47.060;15.064;2022-12-18T01:40:11;3.63;;;2.03;;
4794;SDS011;2411;47.060;15.064;2022-12-18T01:42:38;1.90;;;1.80;;
4794;SDS011;2411;47.060;15.064;2022-12-18T01:47:59;2.00;;;1.90;;
4794;SDS011;2411;47.060;15.064;2022-12-18T01:50:39;2.40;;;2.20;;
4794;SDS011;2411;47.060;15.064;2022-12-18T01:53:15;2.23;;;2.03;;
4794;SDS011;2411;47.060;15.064;2022-12-18T01:55:49;1.77;;;1.67;;
4794;SDS011;2411;47.060;15.064;2022-12-18T02:01:08;1.87;;;1.77;;
4794;SDS011;2411;47.060;15.064;2022-12-18T02:03:36;2.37;;;2.17;;
4794;SDS011;2411;47.060;15.064;2022-12-18T02:08:52;2.20;;;2.00;;
4794;SDS011;2411;47.060;15.064;2022-12-18T02:24:52;2.10;;;2.00;;
4794;SDS011;2411;47.060;15.064;2022-12-18T02:27:22;2.37;;;2.17;;
4794;SDS011;2411;47.060;15.064;2022-12-18T02:29:53;2.20;;;2.10;;
4794;SDS011;2411;47.060;15.064;2022-12-18T02:32:25;1.97;;;1.87;;
4794;SDS011;2411;47.060;15.064;2022-12-18T02:34:55;1.90;;;1.80;;
4794;SDS011;2411;47.060;15.064;2022-12-18T02:37:23;1.63;;;1.53;;
4794;SDS011;2411;47.060;15.064;2022-12-18T02:39:54;2.00;;;1.90;;
4794;SDS011;2411;47.060;15.064;2022-12-18T02:42:24;2.33;;;2.23;;
4794;SDS011;2411;47.060;15.064;2022-12-18T02:44:55;2.03;;;1.93;;
4794;SDS011;2411;47.060;15.064;2022-12-18T02:47:24;2.20;;;2.10;;
4794;SDS011;2411;47.060;15.064;2022-12-18T03:00:52;2.40;;;2.20;;
4794;SDS011;2411;47.060;15.064;2022-12-18T03:03:38;2.03;;;1.77;;
4794;SDS011;2411;47.060;15.064;2022-12-18T03:06:26;2.07;;;1.87;;
4794;SDS011;2411;47.060;15.064;2022-12-18T03:09:07;2.20;;;2.10;;
4794;SDS011;2411;47.060;15.064;2022-12-18T03:11:40;2.40;;;1.83;;
4794;SDS011;2411;47.060;15.064;2022-12-18T03:14:28;1.80;;;1.70;;
4794;SDS011;2411;47.060;15.064;2022-12-18T03:16:59;2.50;;;2.30;;
4794;SDS011;2411;47.060;15.064;2022-12-18T03:19:31;2.07;;;1.97;;
4794;SDS011;2411;47.060;15.064;2022-12-18T03:22:00;2.30;;;2.00;;
4794;SDS011;2411;47.060;15.064;2022-12-18T03:24:30;2.80;;;1.97;;
4794;SDS011;2411;47.060;15.064;2022-12-18T03:27:03;1.90;;;1.80;;
4794;SDS011;2411;47.060;15.064;2022-12-18T03:29:40;2.67;;;2.47;;
4794;SDS011;2411;47.060;15.064;2022-12-18T03:32:17;2.00;;;1.90;;
4794;SDS011;2411;47.060;15.064;2022-12-18T03:34:50;2.10;;;2.00;;
4794;SDS011;2411;47.060;15.064;2022-12-18T03:37:20;2.13;;;2.03;;
4794;SDS011;2411;47.060;15.064;2022-12-18T03:39:47;2.20;;;2.00;;
4794;SDS011;2411;47.060;15.064;2022-12-18T03:45:06;2.30;;;2.10;;
4794;SDS011;2411;47.060;15.064;2022-12-18T03:47:51;2.10;;;2.00;;
4794;SDS011;2411;47.060;15.064;2022-12-18T03:50:45;1.90;;;1.80;;
4794;SDS011;2411;47.060;15.064;2022-12-18T03:56:00;2.60;;;1.97;;
4794;SDS011;2411;47.060;15.064;2022-12-18T03:58:29;2.20;;;1.93;;
4794;SDS011;2411;47.060;15.064;2022-12-18T04:01:00;2.07;;;1.97;;
4794;SDS011;2411;47.060;15.064;2022-12-18T04:03:30;2.13;;;2.03;;
4794;SDS011;2411;47.060;15.064;2022-12-18T04:06:02;1.90;;;1.80;;
4794;SDS011;2411;47.060;15.064;2022-12-18T04:08:30;2.67;;;2.40;;
4794;SDS011;2411;47.060;15.064;2022-12-18T04:10:59;2.20;;;2.00;;
4794;SDS011;2411;47.060;15.064;2022-12-18T04:13:32;2.10;;;2.00;;
4794;SDS011;2411;47.060;15.064;2022-12-18T04:16:02;1.83;;;1.73;;
4794;SDS011;2411;47.060;15.064;2022-12-18T04:18:30;2.33;;;2.23;;
4794;SDS011;2411;47.060;15.064;2022-12-18T04:20:57;1.93;;;1.73;;
4794;SDS011;2411;47.060;15.064;2022-12-18T04:23:24;1.90;;;1.83;;
4794;SDS011;2411;47.060;15.064;2022-12-18T04:25:52;2.03;;;1.90;;
4794;SDS011;2411;47.060;15.064;2022-12-18T04:28:19;2.10;;;1.93;;
4794;SDS011;2411;47.060;15.064;2022-12-18T04:30:50;2.20;;;2.00;;
4794;SDS011;2411;47.060;15.064;2022-12-18T04:33:17;2.53;;;1.90;;
4794;SDS011;2411;47.060;15.064;2022-12-18T04:35:44;2.47;;;2.23;;
4794;SDS011;2411;47.060;15.064;2022-12-18T04:38:12;2.73;;;2.53;;
4794;SDS011;2411;47.060;15.064;2022-12-18T04:40:39;2.20;;;2.10;;
4794;SDS011;2411;47.060;15.064;2022-12-18T04:43:07;1.90;;;1.80;;
4794;SDS011;2411;47.060;15.064;2022-12-18T04:45:34;2.57;;;2.37;;
4794;SDS011;2411;47.060;15.064;2022-12-18T04:48:02;2.50;;;2.30;;
4794;SDS011;2411;47.060;15.064;2022-12-18T04:50:30;2.67;;;2.47;;
4794;SDS011;2411;47.060;15.064;2022-12-18T04:52:57;3.03;;;2.60;;
4794;SDS011;2411;47.060;15.064;2022-12-18T04:55:25;2.70;;;2.50;;
4794;SDS011;2411;47.060;15.064;2022-12-18T04:57:52;2.33;;;2.13;;
4794;SDS011;2411;47.060;15.064;2022-12-18T05:00:19;2.73;;;2.50;;
4794;SDS011;2411;47.060;15.064;2022-12-18T05:02:47;2.73;;;2.10;;
4794;SDS011;2411;47.060;15.064;2022-12-18T05:05:14;2.50;;;2.30;;
4794;SDS011;2411;47.060;15.064;2022-12-18T05:07:42;2.60;;;2.40;;
4794;SDS011;2411;47.060;15.064;2022-12-18T05:10:09;2.27;;;2.10;;
4794;SDS011;2411;47.060;15.064;2022-12-18T05:12:36;3.03;;;2.80;;
4794;SDS011;2411;47.060;15.064;2022-12-18T05:15:26;2.63;;;2.43;;
4794;SDS011;2411;47.060;15.064;2022-12-18T05:17:57;2.40;;;2.20;;
4794;SDS011;2411;47.060;15.064;2022-12-18T05:20:25;4.40;;;2.20;;
4794;SDS011;2411;47.060;15.064;2022-12-18T05:22:53;2.43;;;2.33;;
4794;SDS011;2411;47.060;15.064;2022-12-18T05:25:21;3.23;;;2.60;;
4794;SDS011;2411;47.060;15.064;2022-12-18T05:27:49;2.70;;;2.10;;
4794;SDS011;2411;47.060;15.064;2022-12-18T05:30:17;2.53;;;2.43;;
4794;SDS011;2411;47.060;15.064;2022-12-18T05:32:44;3.77;;;2.67;;
4794;SDS011;2411;47.060;15.064;2022-12-18T05:35:11;2.20;;;2.07;;
4794;SDS011;2411;47.060;15.064;2022-12-18T05:37:38;2.47;;;2.27;;
4794;SDS011;2411;47.060;15.064;2022-12-18T05:40:09;2.13;;;2.03;;
4794;SDS011;2411;47.060;15.064;2022-12-18T05:42:37;2.80;;;2.60;;
4794;SDS011;2411;47.060;15.064;2022-12-18T05:45:05;2.80;;;2.60;;
4794;SDS011;2411;47.060;15.064;2022-12-18T05:47:33;2.80;;;2.47;;
4794;SDS011;2411;47.060;15.064;2022-12-18T05:50:00;3.20;;;2.40;;
4794;SDS011;2411;47.060;15.064;2022-12-18T05:52:28;1.70;;;1.60;;
4794;SDS011;2411;47.060;15.064;2022-12-18T05:54:55;2.80;;;2.00;;
4794;SDS011;2411;47.060;15.064;2022-12-18T05:57:22;2.17;;;2.03;;
4794;SDS011;2411;47.060;15.064;2022-12-18T05:59:49;2.33;;;2.10;;
4794;SDS011;2411;47.060;15.064;2022-12-18T06:02:16;2.40;;;2.17;;
4794;SDS011;2411;47.060;15.064;2022-12-18T06:04:44;2.47;;;2.30;;
4794;SDS011;2411;47.060;15.064;2022-12-18T06:07:11;2.70;;;2.47;;
4794;SDS011;2411;47.060;15.064;2022-12-18T06:09:38;3.13;;;2.70;;
4794;SDS011;2411;47.060;15.064;2022-12-18T06:12:06;5.57;;;3.40;;
4794;SDS011;2411;47.060;15.064;2022-12-18T06:14:33;3.03;;;2.77;;
4794;SDS011;2411;47.060;15.064;2022-12-18T06:17:00;2.47;;;2.23;;
4794;SDS011;2411;47.060;15.064;2022-12-18T06:19:27;3.70;;;3.00;;
4794;SDS011;2411;47.060;15.064;2022-12-18T06:21:54;2.93;;;2.63;;
4794;SDS011;2411;47.060;15.064;2022-12-18T06:24:24;3.70;;;3.07;;
4794;SDS011;2411;47.060;15.064;2022-12-18T06:26:51;4.63;;;2.93;;
4794;SDS011;2411;47.060;15.064;2022-12-18T06:29:18;5.37;;;3.43;;
4794;SDS011;2411;47.060;15.064;2022-12-18T06:31:45;5.73;;;3.00;;
4794;SDS011;2411;47.060;15.064;2022-12-18T06:34:13;3.50;;;3.03;;
4794;SDS011;2411;47.060;15.064;2022-12-18T06:36:40;4.20;;;3.00;;
4794;SDS011;2411;47.060;15.064;2022-12-18T06:39:07;4.10;;;2.70;;
4794;SDS011;2411;47.060;15.064;2022-12-18T06:41:34;3.70;;;3.00;;
4794;SDS011;2411;47.060;15.064;2022-12-18T06:44:02;3.53;;;3.23;;
4794;SDS011;2411;47.060;15.064;2022-12-18T06:46:29;3.80;;;3.50;;
4794;SDS011;2411;47.060;15.064;2022-12-18T06:48:56;4.17;;;3.77;;
4794;SDS011;2411;47.060;15.064;2022-12-18T06:51:24;2.93;;;2.73;;
4794;SDS011;2411;47.060;15.064;2022-12-18T06:53:51;3.80;;;3.50;;
4794;SDS011;2411;47.060;15.064;2022-12-18T06:56:18;3.37;;;3.00;;
4794;SDS011;2411;47.060;15.064;2022-12-18T06:58:46;2.47;;;2.37;;
4794;SDS011;2411;47.060;15.064;2022-12-18T07:01:13;3.70;;;3.30;;
4794;SDS011;2411;47.060;15.064;2022-12-18T07:03:41;3.53;;;3.10;;
4794;SDS011;2411;47.060;15.064;2022-12-18T07:06:14;4.00;;;3.07;;
4794;SDS011;2411;47.060;15.064;2022-12-18T07:08:43;3.47;;;3.10;;
4794;SDS011;2411;47.060;15.064;2022-12-18T07:11:11;3.13;;;2.90;;
4794;SDS011;2411;47.060;15.064;2022-12-18T07:13:39;3.03;;;2.83;;
4794;SDS011;2411;47.060;15.064;2022-12-18T07:16:10;3.00;;;2.70;;
4794;SDS011;2411;47.060;15.064;2022-12-18T07:18:47;3.60;;;3.30;;
4794;SDS011;2411;47.060;15.064;2022-12-18T07:21:17;3.30;;;3.00;;
4794;SDS011;2411;47.060;15.064;2022-12-18T07:23:45;2.93;;;2.63;;
4794;SDS011;2411;47.060;15.064;2022-12-18T07:26:16;4.07;;;3.33;;
4794;SDS011;2411;47.060;15.064;2022-12-18T07:28:45;3.03;;;2.80;;
4794;SDS011;2411;47.060;15.064;2022-12-18T07:31:13;2.57;;;2.40;;
4794;SDS011;2411;47.060;15.064;2022-12-18T07:33:44;3.03;;;2.73;;
4794;SDS011;2411;47.060;15.064;2022-12-18T07:36:12;3.53;;;3.23;;
4794;SDS011;2411;47.060;15.064;2022-12-18T07:38:40;4.37;;;3.63;;
4794;SDS011;2411;47.060;15.064;2022-12-18T07:41:09;3.93;;;3.53;;
4794;SDS011;2411;47.060;15.064;2022-12-18T07:43:38;3.73;;;3.50;;
4794;SDS011;2411;47.060;15.064;2022-12-18T07:46:08;3.20;;;3.00;;
4794;SDS011;2411;47.060;15.064;2022-12-18T07:48:37;3.80;;;3.40;;
4794;SDS011;2411;47.060;15.064;2022-12-18T07:51:05;4.50;;;3.30;;
4794;SDS011;2411;47.060;15.064;2022-12-18T07:53:33;4.40;;;3.67;;
4794;SDS011;2411;47.060;15.064;2022-12-18T07:56:04;5.13;;;4.43;;
4794;SDS011;2411;47.060;15.064;2022-12-18T07:58:53;5.30;;;4.67;;
4794;SDS011;2411;47.060;15.064;2022-12-18T08:01:21;6.70;;;4.80;;
4794;SDS011;2411;47.060;15.064;2022-12-18T08:03:48;4.30;;;3.90;;
4794;SDS011;2411;47.060;15.064;2022-12-18T08:06:18;5.60;;;4.27;;
4794;SDS011;2411;47.060;15.064;2022-12-18T08:08:52;5.17;;;4.23;;
4794;SDS011;2411;47.060;15.064;2022-12-18T08:11:21;4.67;;;4.17;;
4794;SDS011;2411;47.060;15.064;2022-12-18T08:13:50;5.27;;;4.80;;
4794;SDS011;2411;47.060;15.064;2022-12-18T08:16:17;7.10;;;5.60;;
4794;SDS011;2411;47.060;15.064;2022-12-18T08:18:46;10.10;;;6.50;;
4794;SDS011;2411;47.060;15.064;2022-12-18T08:21:16;7.53;;;5.87;;
4794;SDS011;2411;47.060;15.064;2022-12-18T08:23:47;6.53;;;5.73;;
4794;SDS011;2411;47.060;15.064;2022-12-18T08:26:16;5.97;;;5.37;;
4794;SDS011;2411;47.060;15.064;2022-12-18T08:28:44;8.37;;;5.30;;
4794;SDS011;2411;47.060;15.064;2022-12-18T08:31:13;9.13;;;6.43;;
4794;SDS011;2411;47.060;15.064;2022-12-18T08:33:40;10.03;;;6.97;;
4794;SDS011;2411;47.060;15.064;2022-12-18T08:36:09;12.00;;;7.83;;
4794;SDS011;2411;47.060;15.064;2022-12-18T08:38:37;9.47;;;7.43;;
4794;SDS011;2411;47.060;15.064;2022-12-18T08:41:05;11.30;;;7.87;;
4794;SDS011;2411;47.060;15.064;2022-12-18T08:43:33;9.30;;;7.73;;
4794;SDS011;2411;47.060;15.064;2022-12-18T08:46:19;11.33;;;8.80;;
4794;SDS011;2411;47.060;15.064;2022-12-18T08:48:50;13.17;;;9.67;;
4794;SDS011;2411;47.060;15.064;2022-12-18T08:51:18;12.97;;;9.67;;
4794;SDS011;2411;47.060;15.064;2022-12-18T08:53:46;11.43;;;7.97;;
4794;SDS011;2411;47.060;15.064;2022-12-18T08:56:13;11.50;;;7.87;;
4794;SDS011;2411;47.060;15.064;2022-12-18T08:58:41;11.70;;;7.93;;
4794;SDS011;2411;47.060;15.064;2022-12-18T09:01:09;12.70;;;8.10;;
4794;SDS011;2411;47.060;15.064;2022-12-18T09:03:38;11.43;;;7.30;;
4794;SDS011;2411;47.060;15.064;2022-12-18T09:06:06;10.40;;;7.13;;
4794;SDS011;2411;47.060;15.064;2022-12-18T09:08:34;8.83;;;6.83;;
4794;SDS011;2411;47.060;15.064;2022-12-18T09:11:03;7.80;;;7.10;;
4794;SDS011;2411;47.060;15.064;2022-12-18T09:13:31;8.70;;;7.30;;
4794;SDS011;2411;47.060;15.064;2022-12-18T09:15:58;8.73;;;7.03;;
4794;SDS011;2411;47.060;15.064;2022-12-18T09:18:25;12.80;;;8.30;;
4794;SDS011;2411;47.060;15.064;2022-12-18T09:20:52;9.77;;;7.60;;
4794;SDS011;2411;47.060;15.064;2022-12-18T09:23:20;10.57;;;7.70;;
4794;SDS011;2411;47.060;15.064;2022-12-18T09:25:47;10.27;;;7.70;;
4794;SDS011;2411;47.060;15.064;2022-12-18T09:28:18;11.30;;;8.13;;
4794;SDS011;2411;47.060;15.064;2022-12-18T09:30:46;11.30;;;8.77;;
4794;SDS011;2411;47.060;15.064;2022-12-18T09:33:15;10.07;;;8.27;;
4794;SDS011;2411;47.060;15.064;2022-12-18T09:35:44;9.70;;;8.20;;
4794;SDS011;2411;47.060;15.064;2022-12-18T09:38:13;11.43;;;8.60;;
4794;SDS011;2411;47.060;15.064;2022-12-18T09:40:43;9.80;;;8.17;;
4794;SDS011;2411;47.060;15.064;2022-12-18T09:43:21;9.80;;;8.77;;
4794;SDS011;2411;47.060;15.064;2022-12-18T09:45:55;9.13;;;7.60;;
4794;SDS011;2411;47.060;15.064;2022-12-18T09:48:44;9.20;;;8.03;;
4794;SDS011;2411;47.060;15.064;2022-12-18T09:51:18;9.60;;;7.90;;
4794;SDS011;2411;47.060;15.064;2022-12-18T09:53:52;11.33;;;7.40;;
4794;SDS011;2411;47.060;15.064;2022-12-18T09:56:23;7.40;;;6.70;;
4794;SDS011;2411;47.060;15.064;2022-12-18T09:59:01;9.97;;;8.23;;
4794;SDS011;2411;47.060;15.064;2022-12-18T10:01:29;12.13;;;8.43;;
4794;SDS011;2411;47.060;15.064;2022-12-18T10:04:08;8.73;;;7.07;;
4794;SDS011;2411;47.060;15.064;2022-12-18T10:12:23;5.93;;;5.33;;
4794;SDS011;2411;47.060;15.064;2022-12-18T10:15:19;5.10;;;4.60;;
4794;SDS011;2411;47.060;15.064;2022-12-18T10:23:11;4.60;;;4.20;;
4794;SDS011;2411;47.060;15.064;2022-12-18T10:25:55;4.67;;;3.90;;
4794;SDS011;2411;47.060;15.064;2022-12-18T10:28:29;9.40;;;4.60;;
4794;SDS011;2411;47.060;15.064;2022-12-18T10:30:57;4.40;;;4.00;;
4794;SDS011;2411;47.060;15.064;2022-12-18T10:33:28;4.87;;;4.40;;
4794;SDS011;2411;47.060;15.064;2022-12-18T10:35:58;3.77;;;3.47;;
4794;SDS011;2411;47.060;15.064;2022-12-18T10:38:28;4.43;;;3.60;;
4794;SDS011;2411;47.060;15.064;2022-12-18T10:43:27;5.33;;;4.83;;
4794;SDS011;2411;47.060;15.064;2022-12-18T10:48:33;4.77;;;4.37;;
4794;SDS011;2411;47.060;15.064;2022-12-18T10:51:34;6.20;;;5.60;;
4794;SDS011;2411;47.060;15.064;2022-12-18T10:56:33;6.10;;;4.60;;
4794;SDS011;2411;47.060;15.064;2022-12-18T10:59:06;4.90;;;4.30;;
4794;SDS011;2411;47.060;15.064;2022-12-18T11:01:48;6.90;;;5.10;;
4794;SDS011;2411;47.060;15.064;2022-12-18T11:04:19;4.40;;;4.00;;
4794;SDS011;2411;47.060;15.064;2022-12-18T11:12:00;6.63;;;5.80;;
4794;SDS011;2411;47.060;15.064;2022-12-18T11:14:42;7.27;;;5.10;;
4794;SDS011;2411;47.060;15.064;2022-12-18T11:17:43;5.87;;;4.70;;
4794;SDS011;2411;47.060;15.064;2022-12-18T11:20:23;4.90;;;4.40;;
4794;SDS011;2411;47.060;15.064;2022-12-18T11:23:04;5.03;;;4.53;;
4794;SDS011;2411;47.060;15.064;2022-12-18T11:25:37;5.17;;;4.57;;
4794;SDS011;2411;47.060;15.064;2022-12-18T11:31:12;5.70;;;4.80;;
4794;SDS011;2411;47.060;15.064;2022-12-18T11:36:55;5.10;;;4.03;;
4794;SDS011;2411;47.060;15.064;2022-12-18T11:39:31;5.00;;;4.50;;
4794;SDS011;2411;47.060;15.064;2022-12-18T11:44:47;5.37;;;4.90;;
4794;SDS011;2411;47.060;15.064;2022-12-18T11:49:53;5.83;;;5.23;;
4794;SDS011;2411;47.060;15.064;2022-12-18T11:52:59;7.07;;;6.33;;
4794;SDS011;2411;47.060;15.064;2022-12-18T11:58:07;7.27;;;5.90;;
4794;SDS011;2411;47.060;15.064;2022-12-18T12:00:42;8.33;;;6.63;;
4794;SDS011;2411;47.060;15.064;2022-12-18T12:08:44;9.63;;;7.73;;
4794;SDS011;2411;47.060;15.064;2022-12-18T12:11:28;10.00;;;8.37;;
4794;SDS011;2411;47.060;15.064;2022-12-18T12:20:12;16.30;;;7.90;;
4794;SDS011;2411;47.060;15.064;2022-12-18T12:26:02;12.80;;;9.80;;
4794;SDS011;2411;47.060;15.064;2022-12-18T12:38:55;11.67;;;8.27;;
4794;SDS011;2411;47.060;15.064;2022-12-18T12:41:27;10.60;;;7.80;;
4794;SDS011;2411;47.060;15.064;2022-12-18T12:47:26;14.17;;;9.23;;
4794;SDS011;2411;47.060;15.064;2022-12-18T12:50:01;11.30;;;8.77;;
4794;SDS011;2411;47.060;15.064;2022-12-18T12:52:41;12.37;;;9.37;;
4794;SDS011;2411;47.060;15.064;2022-12-18T12:55:19;12.87;;;9.23;;
4794;SDS011;2411;47.060;15.064;2022-12-18T12:58:06;14.23;;;9.00;;
4794;SDS011;2411;47.060;15.064;2022-12-18T13:00:49;11.43;;;8.93;;
4794;SDS011;2411;47.060;15.064;2022-12-18T13:08:59;15.07;;;10.40;;
4794;SDS011;2411;47.060;15.064;2022-12-18T13:11:28;11.73;;;10.00;;
4794;SDS011;2411;47.060;15.064;2022-12-18T13:14:22;13.80;;;9.53;;
4794;SDS011;2411;47.060;15.064;2022-12-18T13:17:15;14.40;;;10.03;;
4794;SDS011;2411;47.060;15.064;2022-12-18T13:20:20;14.67;;;10.27;;
4794;SDS011;2411;47.060;15.064;2022-12-18T13:23:18;13.73;;;10.00;;
4794;SDS011;2411;47.060;15.064;2022-12-18T13:26:40;14.70;;;8.60;;
4794;SDS011;2411;47.060;15.064;2022-12-18T13:34:18;13.17;;;9.80;;
4794;SDS011;2411;47.060;15.064;2022-12-18T13:36:54;15.27;;;10.03;;
4794;SDS011;2411;47.060;15.064;2022-12-18T13:39:32;13.87;;;9.47;;
4794;SDS011;2411;47.060;15.064;2022-12-18T13:44:33;11.60;;;9.37;;
4794;SDS011;2411;47.060;15.064;2022-12-18T13:47:36;14.43;;;10.73;;
4794;SDS011;2411;47.060;15.064;2022-12-18T13:50:25;11.00;;;9.57;;
4794;SDS011;2411;47.060;15.064;2022-12-18T13:53:00;13.63;;;10.70;;
4794;SDS011;2411;47.060;15.064;2022-12-18T13:55:29;10.80;;;8.90;;
4794;SDS011;2411;47.060;15.064;2022-12-18T13:58:03;17.27;;;10.03;;
4794;SDS011;2411;47.060;15.064;2022-12-18T14:00:31;16.33;;;11.20;;
4794;SDS011;2411;47.060;15.064;2022-12-18T14:02:59;15.57;;;11.20;;
4794;SDS011;2411;47.060;15.064;2022-12-18T14:05:28;17.67;;;9.80;;
4794;SDS011;2411;47.060;15.064;2022-12-18T14:08:10;16.00;;;11.20;;
4794;SDS011;2411;47.060;15.064;2022-12-18T14:10:41;16.90;;;12.10;;
4794;SDS011;2411;47.060;15.064;2022-12-18T14:13:17;16.77;;;11.67;;
4794;SDS011;2411;47.060;15.064;2022-12-18T14:15:50;16.63;;;11.57;;
4794;SDS011;2411;47.060;15.064;2022-12-18T14:21:28;19.80;;;12.17;;
4794;SDS011;2411;47.060;15.064;2022-12-18T14:24:02;19.27;;;11.53;;
4794;SDS011;2411;47.060;15.064;2022-12-18T14:26:40;12.70;;;10.77;;
4794;SDS011;2411;47.060;15.064;2022-12-18T14:29:41;18.80;;;11.67;;
4794;SDS011;2411;47.060;15.064;2022-12-18T14:34:47;15.27;;;11.80;;
4794;SDS011;2411;47.060;15.064;2022-12-18T14:37:17;19.30;;;11.37;;
4794;SDS011;2411;47.060;15.064;2022-12-18T14:39:55;19.30;;;12.90;;
4794;SDS011;2411;47.060;15.064;2022-12-18T14:42:25;22.50;;;12.73;;
4794;SDS011;2411;47.060;15.064;2022-12-18T14:48:08;16.93;;;11.70;;
4794;SDS011;2411;47.060;15.064;2022-12-18T14:50:57;18.30;;;12.40;;
4794;SDS011;2411;47.060;15.064;2022-12-18T14:56:10;15.07;;;10.73;;
4794;SDS011;2411;47.060;15.064;2022-12-18T14:58:49;16.00;;;11.77;;
4794;SDS011;2411;47.060;15.064;2022-12-18T15:01:31;19.57;;;12.60;;
4794;SDS011;2411;47.060;15.064;2022-12-18T15:04:02;17.30;;;11.83;;
4794;SDS011;2411;47.060;15.064;2022-12-18T15:08:58;16.37;;;12.03;;
4794;SDS011;2411;47.060;15.064;2022-12-18T15:16:58;18.13;;;11.40;;
4794;SDS011;2411;47.060;15.064;2022-12-18T15:19:32;13.13;;;9.10;;
4794;SDS011;2411;47.060;15.064;2022-12-18T15:22:15;13.73;;;10.20;;
4794;SDS011;2411;47.060;15.064;2022-12-18T15:24:54;13.07;;;9.70;;
4794;SDS011;2411;47.060;15.064;2022-12-18T15:27:30;14.83;;;10.50;;
4794;SDS011;2411;47.060;15.064;2022-12-18T15:30:10;13.90;;;10.23;;
4794;SDS011;2411;47.060;15.064;2022-12-18T15:32:47;16.20;;;10.90;;
4794;SDS011;2411;47.060;15.064;2022-12-18T15:35:25;15.27;;;10.67;;
4794;SDS011;2411;47.060;15.064;2022-12-18T15:37:52;16.90;;;11.40;;
4794;SDS011;2411;47.060;15.064;2022-12-18T15:40:20;16.20;;;11.43;;
4794;SDS011;2411;47.060;15.064;2022-12-18T15:42:51;17.47;;;11.57;;
4794;SDS011;2411;47.060;15.064;2022-12-18T15:45:39;17.67;;;11.27;;
4794;SDS011;2411;47.060;15.064;2022-12-18T15:48:15;15.70;;;11.17;;
4794;SDS011;2411;47.060;15.064;2022-12-18T15:50:52;15.63;;;10.70;;
4794;SDS011;2411;47.060;15.064;2022-12-18T15:53:23;13.73;;;9.40;;
4794;SDS011;2411;47.060;15.064;2022-12-18T15:55:52;10.83;;;9.60;;
4794;SDS011;2411;47.060;15.064;2022-12-18T15:58:38;13.90;;;9.87;;
4794;SDS011;2411;47.060;15.064;2022-12-18T16:01:05;15.50;;;10.53;;
4794;SDS011;2411;47.060;15.064;2022-12-18T16:03:35;17.00;;;11.00;;
4794;SDS011;2411;47.060;15.064;2022-12-18T16:06:03;15.27;;;10.37;;
4794;SDS011;2411;47.060;15.064;2022-12-18T16:08:30;15.43;;;11.80;;
4794;SDS011;2411;47.060;15.064;2022-12-18T16:10:58;13.80;;;10.53;;
4794;SDS011;2411;47.060;15.064;2022-12-18T16:13:26;15.17;;;11.40;;
4794;SDS011;2411;47.060;15.064;2022-12-18T16:15:55;16.10;;;11.80;;
4794;SDS011;2411;47.060;15.064;2022-12-18T16:18:22;14.33;;;10.10;;
4794;SDS011;2411;47.060;15.064;2022-12-18T16:20:50;16.27;;;11.70;;
4794;SDS011;2411;47.060;15.064;2022-12-18T16:23:17;15.10;;;10.77;;
4794;SDS011;2411;47.060;15.064;2022-12-18T16:25:44;13.43;;;10.47;;
4794;SDS011;2411;47.060;15.064;2022-12-18T16:28:11;15.10;;;10.50;;
4794;SDS011;2411;47.060;15.064;2022-12-18T16:30:39;17.40;;;10.53;;
4794;SDS011;2411;47.060;15.064;2022-12-18T16:33:07;15.93;;;11.00;;
4794;SDS011;2411;47.060;15.064;2022-12-18T16:35:36;11.57;;;9.80;;
4794;SDS011;2411;47.060;15.064;2022-12-18T16:38:03;14.13;;;10.10;;
4794;SDS011;2411;47.060;15.064;2022-12-18T16:40:31;16.13;;;11.60;;
4794;SDS011;2411;47.060;15.064;2022-12-18T16:42:59;17.77;;;13.03;;
4794;SDS011;2411;47.060;15.064;2022-12-18T16:45:28;17.20;;;12.33;;
4794;SDS011;2411;47.060;15.064;2022-12-18T16:47:59;15.97;;;11.37;;
4794;SDS011;2411;47.060;15.064;2022-12-18T16:50:26;14.03;;;10.50;;
4794;SDS011;2411;47.060;15.064;2022-12-18T16:52:54;16.10;;;10.83;;
4794;SDS011;2411;47.060;15.064;2022-12-18T16:55:24;17.67;;;12.67;;
4794;SDS011;2411;47.060;15.064;2022-12-18T16:57:54;18.17;;;12.10;;
4794;SDS011;2411;47.060;15.064;2022-12-18T17:00:21;15.20;;;11.50;;
4794;SDS011;2411;47.060;15.064;2022-12-18T17:02:49;16.80;;;12.53;;
4794;SDS011;2411;47.060;15.064;2022-12-18T17:05:16;16.30;;;11.27;;
4794;SDS011;2411;47.060;15.064;2022-12-18T17:07:47;17.37;;;11.93;;
4794;SDS011;2411;47.060;15.064;2022-12-18T17:10:15;17.20;;;12.30;;
4794;SDS011;2411;47.060;15.064;2022-12-18T17:12:42;16.70;;;12.40;;
4794;SDS011;2411;47.060;15.064;2022-12-18T17:15:10;17.27;;;11.87;;
4794;SDS011;2411;47.060;15.064;2022-12-18T17:17:37;19.50;;;13.13;;
4794;SDS011;2411;47.060;15.064;2022-12-18T17:20:05;21.60;;;13.17;;
4794;SDS011;2411;47.060;15.064;2022-12-18T17:22:33;18.90;;;13.10;;
4794;SDS011;2411;47.060;15.064;2022-12-18T17:25:01;18.90;;;12.77;;
4794;SDS011;2411;47.060;15.064;2022-12-18T17:27:30;19.33;;;12.13;;
4794;SDS011;2411;47.060;15.064;2022-12-18T17:29:58;17.97;;;12.17;;
4794;SDS011;2411;47.060;15.064;2022-12-18T17:32:25;18.53;;;13.00;;
4794;SDS011;2411;47.060;15.064;2022-12-18T17:34:53;17.07;;;12.40;;
4794;SDS011;2411;47.060;15.064;2022-12-18T17:37:20;17.47;;;12.60;;
4794;SDS011;2411;47.060;15.064;2022-12-18T17:39:57;16.70;;;12.00;;